createdAt,value
2018-06-15T00:00:12.036Z,0.00
2018-06-15T00:01:12.231Z,0.00
2018-06-15T00:02:12.410Z,0.00
2018-06-15T00:03:12.561Z,0.00
2018-06-15T00:04:12.737Z,0.00
2018-06-15T00:05:12.921Z,0.00
2018-06-15T00:06:13.107Z,0.00
2018-06-15T00:07:13.295Z,0.00
2018-06-15T00:08:13.492Z,0.00
2018-06-15T00:09:13.675Z,0.00
2018-06-15T00:10:13.824Z,0.00
2018-06-15T00:11:14.000Z,0.00
2018-06-15T00:12:14.172Z,0.00
2018-06-15T00:13:14.367Z,0.00
2018-06-15T00:14:14.555Z,0.00
2018-06-15T00:15:14.745Z,0.00
2018-06-15T00:16:14.889Z,0.00
2018-06-15T00:17:15.076Z,0.00
2018-06-15T00:18:16.012Z,0.00
2018-06-15T00:19:15.419Z,0.00
2018-06-15T00:20:15.607Z,0.00
2018-06-15T00:21:15.795Z,0.00
2018-06-15T00:22:15.967Z,0.00
2018-06-15T00:23:16.129Z,0.00
2018-06-15T00:24:16.327Z,0.00
2018-06-15T00:25:16.514Z,0.00
2018-06-15T00:26:16.687Z,0.00
2018-06-15T00:27:16.872Z,0.00
2018-06-15T00:28:17.053Z,0.00
2018-06-15T00:29:17.243Z,0.00
2018-06-15T00:30:17.410Z,0.00
2018-06-15T00:31:17.596Z,0.00
2018-06-15T00:32:17.760Z,0.00
2018-06-15T00:33:17.940Z,0.00
2018-06-15T00:34:18.367Z,0.00
2018-06-15T00:35:18.311Z,0.00
2018-06-15T00:36:18.476Z,0.00
2018-06-15T00:37:18.660Z,0.00
2018-06-15T00:38:19.081Z,0.00
2018-06-15T00:39:19.022Z,0.00
2018-06-15T00:40:19.210Z,0.00
2018-06-15T00:41:19.396Z,0.00
2018-06-15T00:42:19.574Z,0.00
2018-06-15T00:43:19.761Z,0.00
2018-06-15T00:44:19.911Z,0.00
2018-06-15T00:45:20.086Z,0.00
2018-06-15T00:46:20.272Z,0.00
2018-06-15T00:47:20.492Z,0.00
2018-06-15T00:48:20.673Z,0.00
2018-06-15T00:49:20.857Z,0.00
2018-06-15T00:50:21.025Z,0.00
2018-06-15T00:51:21.208Z,0.00
2018-06-15T00:52:21.423Z,0.00
2018-06-15T00:53:21.617Z,0.00
2018-06-15T00:54:21.821Z,0.00
2018-06-15T00:55:22.022Z,0.00
2018-06-15T00:56:22.221Z,0.00
2018-06-15T00:57:22.390Z,0.00
2018-06-15T00:58:22.573Z,0.00
2018-06-15T00:59:22.739Z,0.00
2018-06-15T01:00:22.925Z,0.00
2018-06-15T01:01:23.107Z,0.00
2018-06-15T01:03:23.485Z,0.00
2018-06-15T01:04:23.632Z,0.00
2018-06-15T01:05:23.801Z,0.00
2018-06-15T01:06:24.002Z,0.00
2018-06-15T01:07:24.167Z,0.00
2018-06-15T01:08:24.335Z,0.00
2018-06-15T01:09:24.528Z,0.00
2018-06-15T01:10:24.703Z,0.00
2018-06-15T01:11:24.881Z,0.00
2018-06-15T01:12:25.064Z,0.00
2018-06-15T01:13:25.226Z,0.00
2018-06-15T01:14:25.407Z,0.00
2018-06-15T01:15:25.590Z,0.00
2018-06-15T01:16:25.765Z,0.00
2018-06-15T01:17:25.947Z,0.00
2018-06-15T01:18:26.124Z,0.00
2018-06-15T01:19:26.338Z,0.00
2018-06-15T01:20:26.510Z,0.00
2018-06-15T01:21:26.691Z,0.00
2018-06-15T01:22:26.865Z,0.00
2018-06-15T01:23:27.042Z,0.00
2018-06-15T01:24:27.227Z,0.00
2018-06-15T01:25:27.426Z,0.00
2018-06-15T01:26:27.583Z,0.00
2018-06-15T01:27:27.770Z,0.00
2018-06-15T01:28:27.952Z,0.00
2018-06-15T01:29:28.133Z,0.00
2018-06-15T01:30:28.319Z,0.00
2018-06-15T01:31:28.498Z,0.00
2018-06-15T01:32:28.687Z,0.00
2018-06-15T01:33:28.859Z,0.00
2018-06-15T01:34:29.040Z,0.00
2018-06-15T01:35:29.223Z,0.00
2018-06-15T01:36:29.396Z,0.00
2018-06-15T01:37:29.592Z,0.00
2018-06-15T01:38:29.769Z,0.00
2018-06-15T01:39:29.952Z,0.00
2018-06-15T01:40:30.142Z,0.00
2018-06-15T01:41:30.316Z,0.00
2018-06-15T01:42:30.505Z,0.00
2018-06-15T01:43:30.684Z,0.00
2018-06-15T01:44:30.867Z,0.00
2018-06-15T01:45:31.047Z,0.00
2018-06-15T01:47:31.400Z,0.00
2018-06-15T01:48:31.583Z,0.00
2018-06-15T01:49:31.777Z,0.00
2018-06-15T01:50:31.947Z,0.00
2018-06-15T01:51:32.129Z,0.00
2018-06-15T01:52:32.311Z,0.00
2018-06-15T01:53:32.499Z,0.00
2018-06-15T01:54:32.663Z,0.00
2018-06-15T01:55:32.833Z,0.00
2018-06-15T01:56:33.018Z,0.00
2018-06-15T01:57:33.198Z,0.00
2018-06-15T01:58:33.385Z,0.00
2018-06-15T01:59:33.561Z,0.00
2018-06-15T02:00:33.740Z,0.00
2018-06-15T02:01:33.925Z,0.00
2018-06-15T02:02:34.103Z,0.00
2018-06-15T02:03:34.289Z,0.00
2018-06-15T02:04:34.470Z,0.00
2018-06-15T02:05:34.644Z,0.00
2018-06-15T02:06:34.829Z,0.00
2018-06-15T02:07:35.012Z,0.00
2018-06-15T02:08:35.196Z,0.00
2018-06-15T02:09:35.374Z,0.00
2018-06-15T02:10:35.891Z,0.00
2018-06-15T02:11:35.745Z,0.00
2018-06-15T02:12:35.924Z,0.00
2018-06-15T02:13:36.109Z,0.00
2018-06-15T02:14:36.292Z,0.00
2018-06-15T02:15:36.471Z,0.00
2018-06-15T02:16:36.657Z,0.00
2018-06-15T02:17:36.839Z,0.00
2018-06-15T02:18:37.017Z,0.00
2018-06-15T02:19:37.189Z,0.00
2018-06-15T02:21:37.549Z,0.00
2018-06-15T02:22:37.730Z,0.00
2018-06-15T02:23:37.912Z,0.00
2018-06-15T02:24:38.097Z,0.00
2018-06-15T02:25:38.271Z,0.00
2018-06-15T02:26:38.446Z,0.00
2018-06-15T02:27:38.624Z,0.00
2018-06-15T02:28:38.805Z,0.00
2018-06-15T02:29:38.992Z,0.00
2018-06-15T02:30:39.176Z,0.00
2018-06-15T02:31:39.352Z,0.00
2018-06-15T02:32:39.528Z,0.00
2018-06-15T02:33:39.715Z,0.00
2018-06-15T02:34:39.897Z,0.00
2018-06-15T02:35:40.074Z,0.00
2018-06-15T02:36:40.258Z,0.00
2018-06-15T02:37:40.461Z,0.00
2018-06-15T02:38:40.614Z,0.00
2018-06-15T02:39:40.820Z,0.00
2018-06-15T02:40:41.009Z,4.00
2018-06-15T02:41:41.159Z,4.00
2018-06-15T02:42:41.332Z,0.00
2018-06-15T02:43:41.524Z,4.00
2018-06-15T02:44:41.695Z,4.00
2018-06-15T02:45:41.873Z,4.00
2018-06-15T02:46:42.058Z,8.00
2018-06-15T02:47:42.242Z,4.00
2018-06-15T02:48:42.412Z,8.00
2018-06-15T02:49:42.596Z,8.00
2018-06-15T02:50:42.782Z,4.00
2018-06-15T02:51:42.959Z,8.00
2018-06-15T02:52:43.145Z,12.00
2018-06-15T02:53:43.332Z,8.00
2018-06-15T02:54:43.496Z,12.00
2018-06-15T02:55:43.673Z,12.00
2018-06-15T02:56:43.852Z,16.00
2018-06-15T02:57:44.037Z,16.00
2018-06-15T02:58:44.212Z,16.00
2018-06-15T02:59:44.397Z,16.00
2018-06-15T03:00:44.579Z,20.00
2018-06-15T03:01:44.765Z,20.00
2018-06-15T03:02:44.943Z,20.00
2018-06-15T03:03:45.122Z,24.00
2018-06-15T03:04:45.304Z,24.00
2018-06-15T03:05:45.473Z,28.00
2018-06-15T03:06:45.668Z,28.00
2018-06-15T03:07:45.831Z,32.00
2018-06-15T03:08:46.016Z,32.00
2018-06-15T03:09:46.199Z,32.00
2018-06-15T03:10:46.376Z,36.00
2018-06-15T03:11:46.857Z,36.00
2018-06-15T03:12:46.734Z,40.00
2018-06-15T03:13:46.914Z,44.00
2018-06-15T03:14:47.126Z,40.00
2018-06-15T03:15:47.276Z,48.00
2018-06-15T03:16:47.454Z,48.00
2018-06-15T03:17:47.637Z,52.00
2018-06-15T03:18:47.824Z,56.00
2018-06-15T03:19:47.996Z,60.00
2018-06-15T03:20:48.183Z,64.00
2018-06-15T03:21:48.351Z,64.00
2018-06-15T03:22:48.538Z,72.00
2018-06-15T03:23:48.719Z,72.00
2018-06-15T03:24:48.898Z,80.00
2018-06-15T03:25:49.081Z,80.00
2018-06-15T03:26:49.264Z,88.00
2018-06-15T03:27:49.450Z,92.00
2018-06-15T03:28:49.624Z,96.00
2018-06-15T03:29:49.804Z,104.00
2018-06-15T03:30:49.986Z,112.00
2018-06-15T03:31:50.174Z,120.00
2018-06-15T03:32:50.358Z,124.00
2018-06-15T03:33:50.540Z,132.00
2018-06-15T03:34:50.718Z,144.00
2018-06-15T03:35:50.897Z,156.00
2018-06-15T03:36:51.088Z,164.00
2018-06-15T03:37:51.266Z,168.00
2018-06-15T03:38:51.452Z,176.00
2018-06-15T03:39:51.626Z,184.00
2018-06-15T03:40:51.809Z,188.00
2018-06-15T03:41:51.985Z,196.00
2018-06-15T03:42:52.170Z,204.00
2018-06-15T03:43:52.336Z,216.00
2018-06-15T03:44:52.499Z,224.00
2018-06-15T03:45:52.678Z,236.00
2018-06-15T03:46:52.863Z,248.00
2018-06-15T03:47:53.050Z,264.00
2018-06-15T03:48:53.230Z,284.00
2018-06-15T03:49:53.419Z,300.00
2018-06-15T03:50:53.597Z,320.00
2018-06-15T03:51:53.770Z,340.00
2018-06-15T03:52:53.947Z,356.00
2018-06-15T03:53:54.126Z,368.00
2018-06-15T03:54:54.293Z,372.00
2018-06-15T03:55:54.462Z,376.00
2018-06-15T03:56:54.666Z,376.00
2018-06-15T03:57:54.835Z,384.00
2018-06-15T03:58:55.079Z,396.00
2018-06-15T03:59:55.188Z,408.00
2018-06-15T04:00:55.374Z,432.00
2018-06-15T04:01:55.555Z,456.00
2018-06-15T04:02:55.736Z,492.00
2018-06-15T04:03:55.917Z,532.00
2018-06-15T04:04:56.092Z,564.00
2018-06-15T04:05:56.276Z,596.00
2018-06-15T04:06:56.465Z,620.00
2018-06-15T04:07:56.644Z,636.00
2018-06-15T04:08:56.829Z,656.00
2018-06-15T04:09:56.996Z,684.00
2018-06-15T04:10:57.178Z,704.00
2018-06-15T04:11:57.360Z,712.00
2018-06-15T04:12:57.562Z,684.00
2018-06-15T04:13:57.723Z,624.00
2018-06-15T04:14:57.901Z,588.00
2018-06-15T04:15:58.081Z,584.00
2018-06-15T04:16:58.273Z,580.00
2018-06-15T04:17:58.440Z,580.00
2018-06-15T04:18:58.618Z,580.00
2018-06-15T04:19:58.794Z,568.00
2018-06-15T04:20:58.980Z,560.00
2018-06-15T04:21:59.162Z,552.00
2018-06-15T04:22:59.354Z,548.00
2018-06-15T04:23:59.517Z,540.00
2018-06-15T04:24:59.699Z,536.00
2018-06-15T04:25:59.881Z,532.00
2018-06-15T04:27:00.068Z,536.00
2018-06-15T04:28:00.245Z,540.00
2018-06-15T04:29:00.432Z,544.00
2018-06-15T04:30:00.605Z,556.00
2018-06-15T04:31:00.795Z,560.00
2018-06-15T04:32:00.980Z,564.00
2018-06-15T04:34:01.334Z,568.00
2018-06-15T04:35:01.513Z,572.00
2018-06-15T04:36:01.701Z,576.00
2018-06-15T04:37:01.893Z,580.00
2018-06-15T04:38:02.086Z,584.00
2018-06-15T04:39:02.253Z,584.00
2018-06-15T04:40:02.428Z,588.00
2018-06-15T04:41:02.612Z,592.00
2018-06-15T04:42:02.795Z,600.00
2018-06-15T04:43:02.972Z,608.00
2018-06-15T04:44:03.159Z,620.00
2018-06-15T04:45:03.352Z,640.00
2018-06-15T04:46:03.530Z,664.00
2018-06-15T04:47:03.719Z,692.00
2018-06-15T04:48:03.899Z,732.00
2018-06-15T04:49:04.079Z,776.00
2018-06-15T04:50:04.261Z,828.00
2018-06-15T04:51:04.449Z,892.00
2018-06-15T04:52:04.629Z,968.00
2018-06-15T04:53:04.807Z,1056.00
2018-06-15T04:54:04.989Z,1156.00
2018-06-15T04:55:05.167Z,1256.00
2018-06-15T04:56:05.350Z,1364.00
2018-06-15T04:57:05.533Z,1468.00
2018-06-15T04:58:05.711Z,1588.00
2018-06-15T04:59:05.895Z,1664.00
2018-06-15T05:00:06.084Z,1720.00
2018-06-15T05:01:06.267Z,1740.00
2018-06-15T05:02:06.449Z,1704.00
2018-06-15T05:03:06.617Z,1748.00
2018-06-15T05:04:07.055Z,1756.00
2018-06-15T05:05:07.006Z,1792.00
2018-06-15T05:06:07.163Z,1836.00
2018-06-15T05:07:07.362Z,1884.00
2018-06-15T05:08:07.516Z,1928.00
2018-06-15T05:09:07.716Z,1976.00
2018-06-15T05:10:07.868Z,2016.00
2018-06-15T05:11:08.042Z,2056.00
2018-06-15T05:12:08.220Z,2096.00
2018-06-15T05:13:08.405Z,2136.00
2018-06-15T05:14:08.584Z,2176.00
2018-06-15T05:15:08.764Z,2212.00
2018-06-15T05:16:08.943Z,2260.00
2018-06-15T05:17:09.151Z,2316.00
2018-06-15T05:18:09.303Z,2392.00
2018-06-15T05:19:09.482Z,2480.00
2018-06-15T05:20:09.687Z,2580.00
2018-06-15T05:21:09.845Z,2692.00
2018-06-15T05:22:10.027Z,2816.00
2018-06-15T05:23:10.211Z,2940.00
2018-06-15T05:24:10.400Z,3064.00
2018-06-15T05:25:10.580Z,3176.00
2018-06-15T05:26:10.767Z,3228.00
2018-06-15T05:27:10.948Z,3268.00
2018-06-15T05:28:11.120Z,3228.00
2018-06-15T05:29:11.315Z,3192.00
2018-06-15T05:30:11.484Z,3164.00
2018-06-15T05:31:11.671Z,3156.00
2018-06-15T05:32:11.851Z,3176.00
2018-06-15T05:33:12.040Z,3200.00
2018-06-15T05:34:12.215Z,3232.00
2018-06-15T05:35:12.434Z,3244.00
2018-06-15T05:36:12.582Z,3252.00
2018-06-15T05:37:12.768Z,3252.00
2018-06-15T05:38:12.946Z,3256.00
2018-06-15T05:39:13.135Z,3292.00
2018-06-15T05:40:13.318Z,3344.00
2018-06-15T05:41:13.509Z,3428.00
2018-06-15T05:42:13.653Z,3524.00
2018-06-15T05:43:13.840Z,3620.00
2018-06-15T05:44:14.016Z,3704.00
2018-06-15T05:45:14.207Z,3736.00
2018-06-15T05:46:14.385Z,3732.00
2018-06-15T05:47:14.566Z,3696.00
2018-06-15T05:48:14.766Z,3648.00
2018-06-15T05:49:14.941Z,3608.00
2018-06-15T05:50:15.124Z,3592.00
2018-06-15T05:51:15.310Z,3596.00
2018-06-15T05:52:15.500Z,3588.00
2018-06-15T05:53:15.673Z,3564.00
2018-06-15T05:54:15.851Z,3504.00
2018-06-15T05:55:16.034Z,3396.00
2018-06-15T05:56:16.217Z,3272.00
2018-06-15T05:57:16.403Z,3172.00
2018-06-15T05:58:16.595Z,3096.00
2018-06-15T05:59:16.761Z,3024.00
2018-06-15T06:00:16.952Z,2936.00
2018-06-15T06:01:17.142Z,2848.00
2018-06-15T06:02:17.310Z,2788.00
2018-06-15T06:03:17.490Z,2768.00
2018-06-15T06:04:17.681Z,2776.00
2018-06-15T06:05:17.863Z,2820.00
2018-06-15T06:06:18.044Z,2896.00
2018-06-15T06:07:18.226Z,2984.00
2018-06-15T06:08:18.414Z,3068.00
2018-06-15T06:09:18.600Z,3152.00
2018-06-15T06:10:18.778Z,3196.00
2018-06-15T06:11:18.949Z,3240.00
2018-06-15T06:12:19.384Z,3272.00
2018-06-15T06:13:19.319Z,3308.00
2018-06-15T06:14:19.513Z,3356.00
2018-06-15T06:15:19.703Z,3404.00
2018-06-15T06:16:19.887Z,3436.00
2018-06-15T06:17:20.072Z,3444.00
2018-06-15T06:18:20.248Z,3412.00
2018-06-15T06:19:20.436Z,3340.00
2018-06-15T06:20:20.615Z,3268.00
2018-06-15T06:21:20.807Z,3216.00
2018-06-15T06:22:21.628Z,3216.00
2018-06-15T06:23:21.218Z,3244.00
2018-06-15T06:24:21.401Z,3312.00
2018-06-15T06:25:21.586Z,3404.00
2018-06-15T06:26:21.764Z,3496.00
2018-06-15T06:27:21.944Z,3564.00
2018-06-15T06:28:22.130Z,3608.00
2018-06-15T06:29:22.308Z,3608.00
2018-06-15T06:30:22.497Z,3576.00
2018-06-15T06:31:22.677Z,3520.00
2018-06-15T06:32:22.862Z,3452.00
2018-06-15T06:33:23.049Z,3372.00
2018-06-15T06:34:23.222Z,3288.00
2018-06-15T06:35:23.413Z,3216.00
2018-06-15T06:36:23.590Z,3152.00
2018-06-15T06:37:23.769Z,3096.00
2018-06-15T06:38:23.947Z,3036.00
2018-06-15T06:39:24.127Z,2956.00
2018-06-15T06:40:24.316Z,2868.00
2018-06-15T06:41:24.507Z,2780.00
2018-06-15T06:42:24.682Z,2684.00
2018-06-15T06:43:25.172Z,2588.00
2018-06-15T06:44:25.051Z,2504.00
2018-06-15T06:45:25.231Z,2424.00
2018-06-15T06:46:25.415Z,2360.00
2018-06-15T06:47:25.595Z,2308.00
2018-06-15T06:48:25.775Z,2272.00
2018-06-15T06:49:25.958Z,2248.00
2018-06-15T06:50:26.172Z,2224.00
2018-06-15T06:51:26.326Z,2204.00
2018-06-15T06:52:26.505Z,2180.00
2018-06-15T06:53:26.695Z,2152.00
2018-06-15T06:54:26.868Z,2120.00
2018-06-15T06:55:27.051Z,2068.00
2018-06-15T06:56:27.242Z,1996.00
2018-06-15T06:57:27.434Z,1916.00
2018-06-15T06:58:27.646Z,1844.00
2018-06-15T06:59:27.785Z,1784.00
2018-06-15T07:00:27.966Z,1748.00
2018-06-15T07:01:28.134Z,1728.00
2018-06-15T07:02:28.299Z,1720.00
2018-06-15T07:03:28.499Z,1720.00
2018-06-15T07:04:28.690Z,1728.00
2018-06-15T07:05:28.858Z,1744.00
2018-06-15T07:06:29.048Z,1760.00
2018-06-15T07:07:29.227Z,1780.00
2018-06-15T07:08:29.417Z,1800.00
2018-06-15T07:09:29.586Z,1844.00
2018-06-15T07:10:29.785Z,1876.00
2018-06-15T07:11:30.020Z,1928.00
2018-06-15T07:12:30.119Z,1996.00
2018-06-15T07:13:30.309Z,2084.00
2018-06-15T07:14:30.466Z,2196.00
2018-06-15T07:15:30.645Z,2324.00
2018-06-15T07:16:30.842Z,2460.00
2018-06-15T07:17:31.276Z,2608.00
2018-06-15T07:18:31.219Z,2764.00
2018-06-15T07:19:31.379Z,2932.00
2018-06-15T07:20:31.567Z,3084.00
2018-06-15T07:21:31.740Z,3244.00
2018-06-15T07:22:31.907Z,3408.00
2018-06-15T07:23:32.128Z,3532.00
2018-06-15T07:24:32.314Z,3628.00
2018-06-15T07:25:32.500Z,3688.00
2018-06-15T07:26:32.662Z,3692.00
2018-06-15T07:27:32.830Z,3668.00
2018-06-15T07:28:33.001Z,3616.00
2018-06-15T07:29:33.183Z,3576.00
2018-06-15T07:30:33.368Z,3560.00
2018-06-15T07:31:33.568Z,3568.00
2018-06-15T07:32:33.719Z,3592.00
2018-06-15T07:33:33.960Z,3612.00
2018-06-15T07:34:34.081Z,3636.00
2018-06-15T07:35:34.281Z,3652.00
2018-06-15T07:36:34.448Z,3668.00
2018-06-15T07:37:34.772Z,3676.00
2018-06-15T07:38:34.831Z,3680.00
2018-06-15T07:39:34.982Z,3684.00
2018-06-15T07:40:35.175Z,3684.00
2018-06-15T07:41:35.364Z,3672.00
2018-06-15T07:42:35.532Z,3656.00
2018-06-15T07:43:35.697Z,3632.00
2018-06-15T07:44:35.875Z,3592.00
2018-06-15T07:45:36.025Z,3544.00
2018-06-15T07:46:38.487Z,3488.00
2018-06-15T07:47:36.355Z,3432.00
2018-06-15T07:48:36.539Z,3376.00
2018-06-15T07:49:36.701Z,3336.00
2018-06-15T07:50:36.863Z,3272.00
2018-06-15T07:51:37.019Z,3212.00
2018-06-15T07:52:37.186Z,3124.00
2018-06-15T07:53:37.359Z,3036.00
2018-06-15T07:54:37.541Z,2948.00
2018-06-15T07:55:37.700Z,2872.00
2018-06-15T07:56:37.887Z,2804.00
2018-06-15T07:57:38.085Z,2748.00
2018-06-15T07:58:38.245Z,2700.00
2018-06-15T07:59:38.416Z,2664.00
2018-06-15T08:00:38.634Z,2644.00
2018-06-15T08:01:38.821Z,2628.00
2018-06-15T08:02:38.971Z,2620.00
2018-06-15T08:03:39.123Z,2592.00
2018-06-15T08:04:39.292Z,2572.00
2018-06-15T08:05:39.487Z,2532.00
2018-06-15T08:06:39.640Z,2496.00
2018-06-15T08:07:39.816Z,2456.00
2018-06-15T08:08:40.036Z,2412.00
2018-06-15T08:09:40.160Z,2360.00
2018-06-15T08:10:40.317Z,2316.00
2018-06-15T08:11:40.497Z,2276.00
2018-06-15T08:12:40.678Z,2256.00
2018-06-15T08:13:40.856Z,2260.00
2018-06-15T08:14:41.014Z,2272.00
2018-06-15T08:15:41.218Z,2296.00
2018-06-15T08:16:41.363Z,2324.00
2018-06-15T08:17:41.526Z,2352.00
2018-06-15T08:18:41.733Z,2380.00
2018-06-15T08:19:41.877Z,2404.00
2018-06-15T08:20:42.038Z,2404.00
2018-06-15T08:21:42.213Z,2404.00
2018-06-15T08:22:42.535Z,2396.00
2018-06-15T08:23:42.644Z,2388.00
2018-06-15T08:24:43.151Z,2384.00
2018-06-15T08:25:43.093Z,2376.00
2018-06-15T08:26:43.235Z,2376.00
2018-06-15T08:27:43.464Z,2368.00
2018-06-15T08:28:43.573Z,2352.00
2018-06-15T08:29:43.741Z,2324.00
2018-06-15T08:30:43.935Z,2280.00
2018-06-15T08:31:44.199Z,2220.00
2018-06-15T08:32:44.269Z,2164.00
2018-06-15T08:33:44.456Z,2100.00
2018-06-15T08:34:44.655Z,2036.00
2018-06-15T08:35:44.803Z,1980.00
2018-06-15T08:36:44.985Z,1944.00
2018-06-15T08:37:45.222Z,1916.00
2018-06-15T08:38:45.334Z,1892.00
2018-06-15T08:39:45.496Z,1892.00
2018-06-15T08:40:45.701Z,1876.00
2018-06-15T08:41:45.854Z,1872.00
2018-06-15T08:42:45.998Z,1864.00
2018-06-15T08:43:46.180Z,1864.00
2018-06-15T08:44:46.361Z,1876.00
2018-06-15T08:45:46.512Z,1908.00
2018-06-15T08:46:46.696Z,1956.00
2018-06-15T08:47:46.939Z,2024.00
2018-06-15T08:48:47.045Z,2108.00
2018-06-15T08:49:47.180Z,2208.00
2018-06-15T08:50:47.414Z,2320.00
2018-06-15T08:51:47.545Z,2424.00
2018-06-15T08:52:47.797Z,2520.00
2018-06-15T08:53:47.890Z,2600.00
2018-06-15T08:54:48.079Z,2684.00
2018-06-15T08:55:48.287Z,2772.00
2018-06-15T08:56:48.449Z,2876.00
2018-06-15T08:57:48.626Z,2992.00
2018-06-15T08:58:48.789Z,3116.00
2018-06-15T08:59:48.962Z,3252.00
2018-06-15T09:00:49.177Z,3388.00
2018-06-15T09:01:49.370Z,3508.00
2018-06-15T09:02:49.482Z,3608.00
2018-06-15T09:03:49.666Z,3696.00
2018-06-15T09:04:49.851Z,3760.00
2018-06-15T09:05:50.015Z,3824.00
2018-06-15T09:06:50.215Z,3884.00
2018-06-15T09:07:50.434Z,3952.00
2018-06-15T09:08:50.597Z,4004.00
2018-06-15T09:09:50.761Z,4044.00
2018-06-15T09:10:50.922Z,4048.00
2018-06-15T09:11:51.099Z,4004.00
2018-06-15T09:12:51.237Z,3900.00
2018-06-15T09:13:51.425Z,3764.00
2018-06-15T09:14:51.599Z,3624.00
2018-06-15T09:15:51.804Z,3496.00
2018-06-15T09:16:51.972Z,3372.00
2018-06-15T09:17:52.159Z,3276.00
2018-06-15T09:18:52.342Z,3192.00
2018-06-15T09:19:52.521Z,3132.00
2018-06-15T09:20:52.701Z,3092.00
2018-06-15T09:21:52.890Z,3048.00
2018-06-15T09:22:53.065Z,3016.00
2018-06-15T09:23:53.255Z,2988.00
2018-06-15T09:24:53.672Z,2972.00
2018-06-15T09:25:53.574Z,2960.00
2018-06-15T09:26:53.762Z,2960.00
2018-06-15T09:27:53.917Z,2960.00
2018-06-15T09:28:54.090Z,2976.00
2018-06-15T09:29:54.287Z,2992.00
2018-06-15T09:30:54.454Z,3012.00
2018-06-15T09:31:54.625Z,3032.00
2018-06-15T09:32:54.804Z,3060.00
2018-06-15T09:33:54.983Z,3100.00
2018-06-15T09:34:55.191Z,3164.00
2018-06-15T09:35:55.341Z,3208.00
2018-06-15T09:36:55.540Z,3268.00
2018-06-15T09:37:55.693Z,3332.00
2018-06-15T09:38:55.926Z,3408.00
2018-06-15T09:39:56.089Z,3492.00
2018-06-15T09:40:56.231Z,3588.00
2018-06-15T09:41:56.424Z,3676.00
2018-06-15T09:42:56.606Z,3772.00
2018-06-15T09:43:56.778Z,3852.00
2018-06-15T09:44:57.000Z,3936.00
2018-06-15T09:45:57.122Z,4024.00
2018-06-15T09:46:57.349Z,4140.00
2018-06-15T09:47:57.502Z,4272.00
2018-06-15T09:48:57.699Z,4440.00
2018-06-15T09:49:57.858Z,4636.00
2018-06-15T09:50:58.029Z,4872.00
2018-06-15T09:51:58.213Z,5124.00
2018-06-15T09:52:58.419Z,5416.00
2018-06-15T09:53:58.624Z,5720.00
2018-06-15T09:54:58.760Z,5976.00
2018-06-15T09:55:58.943Z,6204.00
2018-06-15T09:56:59.139Z,6384.00
2018-06-15T09:57:59.301Z,6528.00
2018-06-15T09:58:59.494Z,6652.00
2018-06-15T09:59:59.686Z,6784.00
2018-06-15T10:00:59.892Z,6940.00
2018-06-15T10:02:00.042Z,7120.00
2018-06-15T10:03:00.207Z,7336.00
2018-06-15T10:04:00.399Z,7524.00
2018-06-15T10:05:00.553Z,7644.00
2018-06-15T10:06:00.798Z,7732.00
2018-06-15T10:07:00.982Z,7772.00
2018-06-15T10:08:01.168Z,7800.00
2018-06-15T10:09:01.614Z,7840.00
2018-06-15T10:10:01.474Z,7900.00
2018-06-15T10:11:01.723Z,7980.00
2018-06-15T10:12:01.882Z,8076.00
2018-06-15T10:13:02.036Z,8168.00
2018-06-15T10:14:02.341Z,8224.00
2018-06-15T10:15:02.481Z,8248.00
2018-06-15T10:16:02.625Z,8184.00
2018-06-15T10:17:02.799Z,8104.00
2018-06-15T10:18:03.089Z,8024.00
2018-06-15T10:20:03.322Z,7956.00
2018-06-15T10:21:03.505Z,7996.00
2018-06-15T10:22:03.843Z,8032.00
2018-06-15T10:23:03.940Z,8044.00
2018-06-15T10:24:04.128Z,8052.00
2018-06-15T10:25:04.369Z,8040.00
2018-06-15T10:26:06.628Z,8044.00
2018-06-15T10:27:04.747Z,8056.00
2018-06-15T10:28:04.901Z,8180.00
2018-06-15T10:29:05.079Z,8412.00
2018-06-15T10:30:05.259Z,8704.00
2018-06-15T10:31:05.461Z,8948.00
2018-06-15T10:32:05.786Z,9072.00
2018-06-15T10:33:05.873Z,9112.00
2018-06-15T10:34:06.052Z,9152.00
2018-06-15T10:35:06.226Z,9196.00
2018-06-15T10:36:06.473Z,9292.00
2018-06-15T10:37:06.611Z,9404.00
2018-06-15T10:38:06.819Z,9600.00
2018-06-15T10:39:06.954Z,9688.00
2018-06-15T10:40:07.520Z,9804.00
2018-06-15T10:41:07.338Z,9804.00
2018-06-15T10:42:07.497Z,9776.00
2018-06-15T10:43:07.754Z,9752.00
2018-06-15T10:44:07.886Z,9756.00
2018-06-15T10:45:08.052Z,9720.00
2018-06-15T10:46:08.266Z,9688.00
2018-06-15T10:47:08.437Z,9572.00
2018-06-15T10:48:08.596Z,9480.00
2018-06-15T10:49:08.768Z,9428.00
2018-06-15T10:50:08.942Z,9216.00
2018-06-15T10:51:09.149Z,9084.00
2018-06-15T10:52:09.292Z,9244.00
2018-06-15T10:53:09.491Z,9032.00
2018-06-15T10:54:09.663Z,8740.00
2018-06-15T10:55:09.833Z,8772.00
2018-06-15T10:56:10.072Z,8712.00
2018-06-15T10:57:10.203Z,8448.00
2018-06-15T10:58:10.368Z,8072.00
2018-06-15T10:59:10.541Z,8744.00
2018-06-15T11:00:10.729Z,8284.00
2018-06-15T11:01:10.945Z,7792.00
2018-06-15T11:02:11.086Z,7408.00
2018-06-15T11:03:11.264Z,7236.00
2018-06-15T11:04:11.461Z,7188.00
2018-06-15T11:05:11.629Z,7508.00
2018-06-15T11:06:11.821Z,7788.00
2018-06-15T11:07:12.012Z,7792.00
2018-06-15T11:08:12.198Z,7472.00
2018-06-15T11:09:12.375Z,7452.00
2018-06-15T11:10:12.594Z,7736.00
2018-06-15T11:11:12.745Z,7316.00
2018-06-15T11:12:12.910Z,6916.00
2018-06-15T11:13:13.082Z,6764.00
2018-06-15T11:14:13.580Z,7664.00
2018-06-15T11:15:13.507Z,7688.00
2018-06-15T11:16:13.695Z,7648.00
2018-06-15T11:17:13.866Z,7704.00
2018-06-15T11:18:14.036Z,7664.00
2018-06-15T11:19:14.247Z,5896.00
2018-06-15T11:20:14.412Z,5904.00
2018-06-15T11:21:14.806Z,5636.00
2018-06-15T11:22:14.731Z,5676.00
2018-06-15T11:23:14.893Z,6008.00
2018-06-15T11:25:15.248Z,6496.00
2018-06-15T11:26:15.459Z,6692.00
2018-06-15T11:27:15.629Z,6840.00
2018-06-15T11:28:15.792Z,6896.00
2018-06-15T11:29:15.972Z,6932.00
2018-06-15T11:30:16.162Z,6884.00
2018-06-15T11:31:16.411Z,7100.00
2018-06-15T11:32:16.535Z,7060.00
2018-06-15T11:33:16.707Z,6996.00
2018-06-15T11:34:16.890Z,6980.00
2018-06-15T11:35:17.077Z,7176.00
2018-06-15T11:36:17.278Z,7996.00
2018-06-15T11:37:17.410Z,8112.00
2018-06-15T11:38:17.901Z,7700.00
2018-06-15T11:39:17.828Z,7156.00
2018-06-15T11:40:18.004Z,6656.00
2018-06-15T11:41:18.317Z,6356.00
2018-06-15T11:42:18.381Z,6244.00
2018-06-15T11:43:18.561Z,6296.00
2018-06-15T11:44:18.734Z,6416.00
2018-06-15T11:45:18.917Z,6736.00
2018-06-15T11:46:19.097Z,6284.00
2018-06-15T11:47:19.328Z,5964.00
2018-06-15T11:48:19.456Z,5908.00
2018-06-15T11:49:19.624Z,6032.00
2018-06-15T11:50:19.788Z,5596.00
2018-06-15T11:51:19.957Z,5288.00
2018-06-15T11:52:20.154Z,5104.00
2018-06-15T11:53:20.293Z,4904.00
2018-06-15T11:54:20.476Z,4692.00
2018-06-15T11:55:20.639Z,4516.00
2018-06-15T11:56:20.829Z,4412.00
2018-06-15T11:57:21.015Z,4368.00
2018-06-15T11:59:21.360Z,4340.00
2018-06-15T12:00:21.546Z,4364.00
2018-06-15T12:01:21.739Z,4404.00
2018-06-15T12:02:21.906Z,4436.00
2018-06-15T12:03:22.100Z,4468.00
2018-06-15T12:04:22.275Z,4508.00
2018-06-15T12:05:22.463Z,4544.00
2018-06-15T12:06:22.618Z,4532.00
2018-06-15T12:07:22.792Z,4472.00
2018-06-15T12:08:22.988Z,4448.00
2018-06-15T12:09:25.359Z,4424.00
2018-06-15T12:10:23.436Z,4412.00
2018-06-15T12:11:23.616Z,4416.00
2018-06-15T12:12:23.781Z,4452.00
2018-06-15T12:13:23.966Z,4508.00
2018-06-15T12:14:24.171Z,4552.00
2018-06-15T12:15:25.371Z,4608.00
2018-06-15T12:16:24.517Z,4656.00
2018-06-15T12:17:24.709Z,4676.00
2018-06-15T12:18:24.886Z,4672.00
2018-06-15T12:19:25.071Z,4684.00
2018-06-15T12:20:25.254Z,4716.00
2018-06-15T12:21:25.430Z,4748.00
2018-06-15T12:22:25.594Z,4816.00
2018-06-15T12:23:25.759Z,4896.00
2018-06-15T12:24:25.923Z,4968.00
2018-06-15T12:25:26.110Z,5040.00
2018-06-15T12:26:26.280Z,5100.00
2018-06-15T12:27:26.459Z,5112.00
2018-06-15T12:28:26.655Z,5100.00
2018-06-15T12:29:27.183Z,5108.00
2018-06-15T12:30:27.061Z,5132.00
2018-06-15T12:31:27.211Z,5156.00
2018-06-15T12:32:27.412Z,5172.00
2018-06-15T12:33:27.582Z,5216.00
2018-06-15T12:34:27.774Z,5236.00